createdAt,value
2022-12-28T00:00:35.262Z,100403.73
2022-12-28T00:03:59.586Z,100399.95
2022-12-28T00:07:01.256Z,100396.38
2022-12-28T00:10:03.184Z,100391.59
2022-12-28T00:13:04.725Z,100387.66
2022-12-28T00:16:14.208Z,100375.54
2022-12-28T00:19:16.687Z,100374.15
2022-12-28T00:22:18.353Z,100380.81
2022-12-28T00:25:19.899Z,100382.17
2022-12-28T00:28:21.805Z,100381.14
2022-12-28T00:31:23.663Z,100376.86
2022-12-28T00:34:26.458Z,100374.29
2022-12-28T00:37:28.540Z,100381.60
2022-12-28T00:40:30.050Z,100385.19
2022-12-28T00:43:32.089Z,100386.38
2022-12-28T00:46:33.791Z,100383.14
2022-12-28T00:49:35.271Z,100388.24
2022-12-28T00:52:36.959Z,100387.89
2022-12-28T00:55:39.345Z,100392.98
2022-12-28T00:58:41.702Z,100391.95
2022-12-28T01:01:43.546Z,100395.32
2022-12-28T01:04:45.330Z,100397.17
2022-12-28T01:07:46.904Z,100389.80
2022-12-28T01:10:48.568Z,100387.39
2022-12-28T01:13:51.555Z,100385.99
2022-12-28T01:16:53.232Z,100392.61
2022-12-28T01:19:55.772Z,100398.01
2022-12-28T01:22:57.418Z,100396.42
2022-12-28T01:26:02.374Z,100393.64
2022-12-28T01:29:04.164Z,100393.95
2022-12-28T01:32:06.595Z,100392.91
2022-12-28T01:35:08.536Z,100394.91
2022-12-28T01:38:10.122Z,100393.70
2022-12-28T01:41:14.602Z,100390.95
2022-12-28T01:44:16.420Z,100390.06
2022-12-28T01:47:28.829Z,100389.53
2022-12-28T01:50:30.620Z,100393.25
2022-12-28T01:53:32.328Z,100388.31
2022-12-28T01:56:33.926Z,100385.27
2022-12-28T01:59:39.566Z,100382.40
2022-12-28T02:03:02.565Z,100381.21
2022-12-28T02:06:08.731Z,100381.50
2022-12-28T02:09:14.559Z,100382.52
2022-12-28T02:12:17.338Z,100379.09
2022-12-28T02:15:23.062Z,100373.63
2022-12-28T02:18:25.133Z,100373.09
2022-12-28T02:21:44.193Z,100365.59
2022-12-28T02:24:45.744Z,100361.70
2022-12-28T02:28:18.330Z,100361.74
2022-12-28T02:32:00.641Z,100362.46
2022-12-28T02:35:34.062Z,100358.55
2022-12-28T02:39:05.929Z,100363.13
2022-12-28T02:42:07.994Z,100361.04
2022-12-28T02:45:38.292Z,100357.73
2022-12-28T02:48:44.856Z,100354.55
2022-12-28T02:52:02.717Z,100346.42
2022-12-28T02:55:07.088Z,100347.51
2022-12-28T02:58:31.028Z,100342.36
2022-12-28T03:01:53.446Z,100342.81
2022-12-28T03:05:18.885Z,100342.36
2022-12-28T03:08:49.974Z,100331.59
2022-12-28T03:11:56.700Z,100329.99
2022-12-28T03:15:12.026Z,100322.85
2022-12-28T03:18:16.601Z,100318.91
2022-12-28T03:21:18.607Z,100318.64
2022-12-28T03:24:20.218Z,100316.50
2022-12-28T03:27:22.309Z,100307.56
2022-12-28T03:30:24.357Z,100303.06
2022-12-28T03:33:25.957Z,100297.77
2022-12-28T03:36:31.004Z,100303.88
2022-12-28T03:39:52.778Z,100306.20
2022-12-28T03:42:55.921Z,100307.98
2022-12-28T03:46:21.727Z,100304.33
2022-12-28T03:49:23.936Z,100305.61
2022-12-28T03:52:26.076Z,100309.12
2022-12-28T03:55:27.869Z,100311.97
2022-12-28T03:58:29.463Z,100306.98
2022-12-28T04:01:31.265Z,100314.61
2022-12-28T04:04:32.877Z,100312.05
2022-12-28T04:07:34.484Z,100316.78
2022-12-28T04:10:36.042Z,100320.20
2022-12-28T04:13:37.910Z,100318.98
2022-12-28T04:16:39.377Z,100318.28
2022-12-28T04:19:40.953Z,100314.88
2022-12-28T04:22:42.560Z,100312.67
2022-12-28T04:25:44.324Z,100311.36
2022-12-28T04:28:46.325Z,100308.16
2022-12-28T04:31:48.105Z,100303.52
2022-12-28T04:34:50.990Z,100295.91
2022-12-28T04:37:52.575Z,100286.41
2022-12-28T04:40:54.216Z,100286.32
2022-12-28T04:43:55.889Z,100286.91
2022-12-28T04:46:57.590Z,100287.75
2022-12-28T04:49:59.343Z,100290.17
2022-12-28T04:53:00.866Z,100292.79
2022-12-28T04:56:06.965Z,100291.67
2022-12-28T04:59:08.653Z,100292.77
2022-12-28T05:02:10.420Z,100290.05
2022-12-28T05:05:12.022Z,100285.98
2022-12-28T05:08:13.703Z,100281.13
2022-12-28T05:11:18.400Z,100277.48
2022-12-28T05:14:19.939Z,100265.13
2022-12-28T05:17:21.617Z,100262.04
2022-12-28T05:20:23.203Z,100263.84
2022-12-28T05:23:24.776Z,100260.99
2022-12-28T05:26:28.808Z,100259.71
2022-12-28T05:29:30.462Z,100256.64
2022-12-28T05:32:32.037Z,100256.82
2022-12-28T05:35:35.320Z,100258.36
2022-12-28T05:38:37.263Z,100257.34
2022-12-28T05:41:38.956Z,100262.45
2022-12-28T05:44:40.676Z,100261.31
2022-12-28T05:47:42.365Z,100255.98
2022-12-28T05:50:43.994Z,100260.38
2022-12-28T05:53:45.904Z,100260.66
2022-12-28T05:56:49.919Z,100264.17
2022-12-28T05:59:51.509Z,100261.77
2022-12-28T06:02:55.029Z,100258.67
2022-12-28T06:05:56.767Z,100258.77
2022-12-28T06:08:58.711Z,100252.75
2022-12-28T06:12:00.352Z,100242.66
2022-12-28T06:15:01.965Z,100235.27
2022-12-28T06:18:03.837Z,100236.40
2022-12-28T06:21:14.062Z,100237.59
2022-12-28T06:24:15.661Z,100238.33
2022-12-28T06:27:17.203Z,100232.52
2022-12-28T06:30:18.938Z,100227.94
2022-12-28T06:33:20.565Z,100221.44
2022-12-28T06:36:24.823Z,100226.45
2022-12-28T06:39:26.467Z,100224.32
2022-12-28T06:42:28.048Z,100223.48
2022-12-28T06:45:29.733Z,100221.17
2022-12-28T06:48:32.865Z,100219.58
2022-12-28T06:51:36.486Z,100215.16
2022-12-28T06:54:38.302Z,100211.31
2022-12-28T06:57:39.865Z,100202.02
2022-12-28T07:00:41.418Z,100206.33
2022-12-28T07:03:44.356Z,100206.23
2022-12-28T07:06:46.048Z,100207.81
2022-12-28T07:09:47.573Z,100202.54
2022-12-28T07:12:49.341Z,100196.19
2022-12-28T07:15:50.892Z,100190.77
2022-12-28T07:18:52.853Z,100181.77
2022-12-28T07:21:54.494Z,100177.70
2022-12-28T07:24:56.024Z,100173.59
2022-12-28T07:27:57.612Z,100170.69
2022-12-28T07:30:59.348Z,100165.25
2022-12-28T07:34:01.145Z,100160.30
2022-12-28T07:37:02.780Z,100156.89
2022-12-28T07:40:04.814Z,100156.54
2022-12-28T07:43:06.486Z,100162.52
2022-12-28T07:46:13.527Z,100160.64
2022-12-28T07:49:15.121Z,100162.34
2022-12-28T07:52:16.696Z,100160.45
2022-12-28T07:55:18.345Z,100152.94
2022-12-28T07:58:19.909Z,100158.21
2022-12-28T08:01:23.808Z,100156.98
2022-12-28T08:04:25.857Z,100154.42
2022-12-28T08:07:27.490Z,100148.95
2022-12-28T08:10:29.151Z,100141.75
2022-12-28T08:13:34.471Z,100145.33
2022-12-28T08:16:40.872Z,100149.22
2022-12-28T08:19:42.591Z,100149.20
2022-12-28T08:22:44.245Z,100141.15
2022-12-28T08:25:46.007Z,100142.14
2022-12-28T08:28:48.701Z,100140.40
2022-12-28T08:31:50.508Z,100133.85
2022-12-28T08:34:52.305Z,100132.59
2022-12-28T08:37:56.999Z,100135.27
2022-12-28T08:41:00.583Z,100139.16
2022-12-28T08:44:02.476Z,100138.61
2022-12-28T08:47:04.102Z,100142.63
2022-12-28T08:50:06.058Z,100139.16
2022-12-28T08:53:07.630Z,100138.04
2022-12-28T08:56:12.180Z,100139.30
2022-12-28T08:59:17.867Z,100139.90
2022-12-28T09:02:19.546Z,100143.92
2022-12-28T09:05:21.216Z,100141.92
2022-12-28T09:08:22.634Z,100143.71
2022-12-28T09:11:24.750Z,100141.94
2022-12-28T09:14:26.403Z,100143.58
2022-12-28T09:17:28.127Z,100134.31
2022-12-28T09:20:29.777Z,100132.74
2022-12-28T09:23:31.476Z,100127.59
2022-12-28T09:26:36.872Z,100125.27
2022-12-28T09:29:38.422Z,100121.48
2022-12-28T09:32:40.064Z,100117.64
2022-12-28T09:35:41.646Z,100118.92
2022-12-28T09:38:43.724Z,100110.67
2022-12-28T09:41:52.845Z,100109.44
2022-12-28T09:45:03.700Z,100111.54
2022-12-28T09:48:12.655Z,100108.38
2022-12-28T09:51:14.797Z,100108.23
2022-12-28T09:54:16.488Z,100101.17
2022-12-28T09:57:19.130Z,100091.39
2022-12-28T10:00:32.267Z,100086.23
2022-12-28T10:03:41.614Z,100086.20
2022-12-28T10:06:43.467Z,100081.33
2022-12-28T10:09:45.761Z,100076.89
2022-12-28T10:12:48.161Z,100073.13
2022-12-28T10:15:50.764Z,100068.08
2022-12-28T10:18:52.779Z,100067.33
2022-12-28T10:22:03.125Z,100064.75
2022-12-28T10:25:17.061Z,100058.45
2022-12-28T10:28:21.407Z,100050.84
2022-12-28T10:31:36.470Z,100040.50
2022-12-28T10:34:53.371Z,100038.95
2022-12-28T10:38:27.887Z,100041.74
2022-12-28T10:41:36.150Z,100048.67
2022-12-28T10:44:40.125Z,100041.31
2022-12-28T10:47:44.805Z,100042.36
2022-12-28T10:50:54.102Z,100040.05
2022-12-28T10:53:57.734Z,100037.62
2022-12-28T10:56:59.424Z,100040.89
2022-12-28T11:00:33.349Z,100035.11
2022-12-28T11:03:37.520Z,100032.94
2022-12-28T11:06:59.344Z,100024.36
2022-12-28T11:10:19.381Z,100019.04
2022-12-28T11:13:22.157Z,100016.15
2022-12-28T11:16:24.128Z,100017.18
2022-12-28T11:19:26.101Z,100010.69
2022-12-28T11:22:29.393Z,100002.10
2022-12-28T11:25:33.373Z,100004.33
2022-12-28T11:28:34.951Z,99998.52
2022-12-28T11:31:43.723Z,99981.27
2022-12-28T11:34:45.714Z,99974.51
2022-12-28T11:37:58.182Z,99977.55
2022-12-28T11:40:59.814Z,99967.39
2022-12-28T11:44:01.990Z,99965.94
2022-12-28T11:47:16.168Z,99959.16
2022-12-28T11:50:33.483Z,99951.39
2022-12-28T11:53:35.046Z,99941.14
2022-12-28T11:56:36.636Z,99933.60
2022-12-28T11:59:38.176Z,99931.48
2022-12-28T12:02:40.178Z,99927.31
2022-12-28T12:05:41.807Z,99923.98
2022-12-28T12:08:43.525Z,99916.86
2022-12-28T12:11:46.099Z,99913.72
2022-12-28T12:14:53.070Z,99910.76
2022-12-28T12:18:06.047Z,99911.40
2022-12-28T12:21:15.587Z,99905.17
2022-12-28T12:24:17.754Z,99901.13
2022-12-28T12:27:37.208Z,99895.50
2022-12-28T12:30:42.391Z,99886.05
2022-12-28T12:33:46.827Z,99882.69
2022-12-28T12:36:59.595Z,99878.86
2022-12-28T12:40:40.036Z,99874.77
2022-12-28T12:44:04.747Z,99864.80
2022-12-28T12:47:29.856Z,99859.98
2022-12-28T12:51:03.769Z,99856.84
2022-12-28T12:54:33.201Z,99852.74
2022-12-28T12:57:40.209Z,99847.08
2022-12-28T13:00:49.087Z,99844.69
2022-12-28T13:03:53.576Z,99836.17
2022-12-28T13:07:03.694Z,99836.08
2022-12-28T13:10:05.865Z,99833.21
2022-12-28T13:13:07.552Z,99824.70
2022-12-28T13:16:10.083Z,99820.89
2022-12-28T13:19:18.260Z,99820.16
2022-12-28T13:22:33.454Z,99822.29
2022-12-28T13:25:35.253Z,99814.42
2022-12-28T13:28:37.541Z,99812.83
2022-12-28T13:31:40.268Z,99808.62
2022-12-28T13:34:49.345Z,99803.48
2022-12-28T13:38:12.831Z,99799.82
2022-12-28T13:41:34.289Z,99800.66
2022-12-28T13:44:40.021Z,99795.59
2022-12-28T13:47:45.012Z,99789.48
2022-12-28T13:50:46.785Z,99786.52
2022-12-28T13:53:53.220Z,99785.58
2022-12-28T13:57:14.377Z,99783.35
2022-12-28T14:00:18.882Z,99777.20
2022-12-28T14:03:20.662Z,99771.61
2022-12-28T14:06:22.250Z,99766.21
2022-12-28T14:09:23.743Z,99759.61
2022-12-28T14:12:25.811Z,99751.64
2022-12-28T14:15:27.940Z,99752.23
2022-12-28T14:18:31.212Z,99752.09
2022-12-28T14:21:35.276Z,99754.48
2022-12-28T14:24:37.069Z,99744.35
2022-12-28T14:28:00.994Z,99744.10
2022-12-28T14:31:05.138Z,99745.14
2022-12-28T14:34:07.384Z,99753.34
2022-12-28T14:37:30.290Z,99755.89
2022-12-28T14:40:35.212Z,99761.31
2022-12-28T14:43:37.042Z,99760.25
2022-12-28T14:46:40.018Z,99763.67
2022-12-28T14:49:42.018Z,99764.11
2022-12-28T14:52:46.013Z,99757.34
2022-12-28T14:55:53.830Z,99759.44
2022-12-28T14:58:58.568Z,99760.65
2022-12-28T15:02:00.449Z,99757.62
2022-12-28T15:05:02.949Z,99756.71
2022-12-28T15:08:05.343Z,99756.04
2022-12-28T15:11:06.992Z,99749.58
2022-12-28T15:14:08.456Z,99746.58
2022-12-28T15:17:10.681Z,99742.27
2022-12-28T15:20:12.403Z,99739.09
2022-12-28T15:23:14.165Z,99742.11
2022-12-28T15:26:15.710Z,99741.84
2022-12-28T15:29:32.159Z,99746.64
2022-12-28T15:32:38.905Z,99747.05
2022-12-28T15:35:40.399Z,99745.97
2022-12-28T15:38:42.466Z,99738.71
2022-12-28T15:41:44.153Z,99736.42
2022-12-28T15:44:45.632Z,99736.45
2022-12-28T15:47:47.251Z,99743.41
2022-12-28T15:50:49.098Z,99743.02
2022-12-28T15:53:50.553Z,99735.73
2022-12-28T15:56:53.697Z,99731.60
2022-12-28T15:59:55.709Z,99734.38
2022-12-28T16:02:57.528Z,99733.59
2022-12-28T16:05:59.407Z,99733.13
2022-12-28T16:09:01.675Z,99726.73
2022-12-28T16:12:03.988Z,99729.14
2022-12-28T16:15:06.862Z,99734.11
2022-12-28T16:18:08.510Z,99735.56
2022-12-28T16:21:11.192Z,99742.60
2022-12-28T16:24:12.914Z,99738.16
2022-12-28T16:27:14.908Z,99738.23
2022-12-28T16:30:16.586Z,99736.45
2022-12-28T16:33:18.180Z,99734.85
2022-12-28T16:36:19.818Z,99730.02
2022-12-28T16:39:21.522Z,99724.61
2022-12-28T16:42:23.079Z,99724.27
2022-12-28T16:45:24.744Z,99722.66
2022-12-28T16:48:26.333Z,99717.33
2022-12-28T16:51:29.228Z,99716.33
2022-12-28T16:54:30.916Z,99713.80
2022-12-28T16:57:32.671Z,99711.84
2022-12-28T17:00:34.500Z,99710.45
2022-12-28T17:03:36.557Z,99713.45
2022-12-28T17:06:40.174Z,99708.38
2022-12-28T17:09:45.383Z,99706.68
2022-12-28T17:12:51.578Z,99699.50
2022-12-28T17:15:53.491Z,99697.61
2022-12-28T17:18:55.063Z,99691.60
2022-12-28T17:21:56.791Z,99690.47
2022-12-28T17:24:58.403Z,99689.80
2022-12-28T17:28:00.156Z,99691.45
2022-12-28T17:31:16.661Z,99693.33
2022-12-28T17:34:19.536Z,99693.35
2022-12-28T17:37:21.195Z,99692.81
2022-12-28T17:40:22.742Z,99689.61
2022-12-28T17:43:24.364Z,99691.28
2022-12-28T17:46:28.843Z,99691.15
2022-12-28T17:49:31.606Z,99684.08
2022-12-28T17:52:33.235Z,99686.17
2022-12-28T17:55:35.623Z,99678.23
2022-12-28T17:58:37.248Z,99673.88
2022-12-28T18:01:39.164Z,99678.40
2022-12-28T18:04:40.907Z,99672.23
2022-12-28T18:07:42.617Z,99670.91
2022-12-28T18:10:45.495Z,99664.66
2022-12-28T18:13:47.246Z,99664.61
2022-12-28T18:16:48.777Z,99665.51
2022-12-28T18:19:50.642Z,99666.03
2022-12-28T18:22:52.334Z,99671.20
2022-12-28T18:26:08.399Z,99674.79
2022-12-28T18:29:10.046Z,99677.61
2022-12-28T18:32:11.625Z,99681.18
2022-12-28T18:35:13.343Z,99675.92
2022-12-28T18:38:14.904Z,99675.13
2022-12-28T18:41:18.479Z,99676.99
2022-12-28T18:44:20.235Z,99674.67
2022-12-28T18:47:21.941Z,99674.00
2022-12-28T18:50:23.585Z,99664.77
2022-12-28T18:53:26.810Z,99669.63
2022-12-28T18:56:28.450Z,99661.30
2022-12-28T18:59:30.051Z,99662.25
2022-12-28T19:02:32.061Z,99665.49
2022-12-28T19:05:34.003Z,99667.65
2022-12-28T19:08:37.053Z,99668.28
2022-12-28T19:11:39.895Z,99668.80
2022-12-28T19:14:41.469Z,99664.67
2022-12-28T19:17:43.058Z,99667.30
2022-12-28T19:20:44.891Z,99665.44
2022-12-28T19:23:50.699Z,99663.36
2022-12-28T19:26:52.320Z,99660.75
2022-12-28T19:29:54.254Z,99665.19
2022-12-28T19:32:55.933Z,99671.12
2022-12-28T19:35:57.434Z,99669.75
2022-12-28T19:38:59.073Z,99667.14
2022-12-28T19:42:00.603Z,99661.84
2022-12-28T19:45:07.933Z,99659.73
2022-12-28T19:48:11.484Z,99660.39
2022-12-28T19:51:13.889Z,99655.47
2022-12-28T19:54:15.628Z,99648.82
2022-12-28T19:57:17.167Z,99654.10
2022-12-28T20:00:18.964Z,99655.39
2022-12-28T20:03:21.283Z,99648.70
2022-12-28T20:06:24.957Z,99648.66
2022-12-28T20:09:26.674Z,99643.09
2022-12-28T20:12:28.348Z,99638.07
2022-12-28T20:15:29.991Z,99636.02
2022-12-28T20:18:31.711Z,99636.09
2022-12-28T20:21:33.292Z,99634.23
2022-12-28T20:24:34.972Z,99634.60
2022-12-28T20:27:36.585Z,99631.70
2022-12-28T20:30:38.291Z,99628.43
2022-12-28T20:33:40.604Z,99623.48
2022-12-28T20:36:42.445Z,99616.88
2022-12-28T20:39:43.948Z,99619.73
2022-12-28T20:42:45.591Z,99615.17
2022-12-28T20:45:53.922Z,99612.66
2022-12-28T20:48:56.230Z,99609.30
2022-12-28T20:51:57.715Z,99608.08
2022-12-28T20:54:59.294Z,99606.19
2022-12-28T20:58:00.918Z,99609.77
2022-12-28T21:01:08.829Z,99614.07
2022-12-28T21:04:10.691Z,99617.58
2022-12-28T21:07:12.211Z,99607.64
2022-12-28T21:10:13.959Z,99608.05
2022-12-28T21:13:15.634Z,99597.69
2022-12-28T21:16:18.159Z,99595.77
2022-12-28T21:19:19.868Z,99594.45
2022-12-28T21:22:21.384Z,99592.28
2022-12-28T21:25:23.142Z,99592.64
2022-12-28T21:28:24.775Z,99588.91
2022-12-28T21:31:26.509Z,99589.89
2022-12-28T21:34:29.221Z,99586.59
2022-12-28T21:37:30.934Z,99587.71
2022-12-28T21:40:32.460Z,99584.01
2022-12-28T21:43:34.121Z,99583.27
2022-12-28T21:46:35.896Z,99580.01
2022-12-28T21:49:37.406Z,99575.42
2022-12-28T21:52:39.048Z,99571.05
2022-12-28T21:55:40.692Z,99567.87
2022-12-28T21:58:45.338Z,99563.04
2022-12-28T22:01:47.416Z,99565.48
2022-12-28T22:04:49.290Z,99565.00
2022-12-28T22:07:50.816Z,99557.61
2022-12-28T22:10:56.225Z,99554.52
2022-12-28T22:13:58.320Z,99545.63
2022-12-28T22:17:00.247Z,99539.48
2022-12-28T22:20:02.138Z,99532.98
2022-12-28T22:23:04.035Z,99530.42
2022-12-28T22:26:05.782Z,99530.64
2022-12-28T22:29:07.431Z,99529.89
2022-12-28T22:32:09.118Z,99528.58
2022-12-28T22:35:11.154Z,99528.60
2022-12-28T22:38:12.796Z,99527.29
2022-12-28T22:41:14.338Z,99524.80
2022-12-28T22:44:15.841Z,99517.86
2022-12-28T22:47:17.516Z,99516.94
2022-12-28T22:50:19.271Z,99512.80
2022-12-28T22:53:20.891Z,99508.50
2022-12-28T22:56:22.530Z,99500.98
2022-12-28T22:59:24.329Z,99506.60
2022-12-28T23:02:25.885Z,99496.83
2022-12-28T23:05:27.951Z,99498.70
2022-12-28T23:08:29.603Z,99498.71
2022-12-28T23:11:31.421Z,99493.90
2022-12-28T23:14:33.018Z,99495.88
2022-12-28T23:17:34.774Z,99500.05
2022-12-28T23:20:38.991Z,99496.39
2022-12-28T23:23:40.776Z,99495.53
2022-12-28T23:26:42.355Z,99496.44
2022-12-28T23:29:45.152Z,99501.27
2022-12-28T23:32:47.868Z,99503.84
2022-12-28T23:35:49.482Z,99501.63
2022-12-28T23:38:51.095Z,99495.39
2022-12-28T23:41:52.910Z,99496.25
2022-12-28T23:44:54.379Z,99489.10
2022-12-28T23:47:55.884Z,99488.04
2022-12-28T23:50:57.476Z,99486.30
2022-12-28T23:53:59.235Z,99481.16
2022-12-28T23:57:00.890Z,99489.30
